createdAt,value
2023-05-19T00:02:33.741Z,11.83
2023-05-19T00:05:40.781Z,11.64
2023-05-19T00:08:43.114Z,11.62
2023-05-19T00:11:45.674Z,11.64
2023-05-19T00:14:48.155Z,11.43
2023-05-19T00:17:52.402Z,11.36
2023-05-19T00:20:54.690Z,11.44
2023-05-19T00:23:57.545Z,11.53
2023-05-19T00:26:59.798Z,11.49
2023-05-19T00:30:02.104Z,11.48
2023-05-19T00:33:04.383Z,11.49
2023-05-19T00:36:07.106Z,11.52
2023-05-19T00:39:09.341Z,11.61
2023-05-19T00:42:11.677Z,11.65
2023-05-19T00:45:13.896Z,11.52
2023-05-19T00:48:16.140Z,11.48
2023-05-19T00:51:18.612Z,11.40
2023-05-19T00:54:21.353Z,11.54
2023-05-19T00:57:23.888Z,11.65
2023-05-19T01:00:26.130Z,11.66
2023-05-19T01:03:31.127Z,11.61
2023-05-19T01:06:33.613Z,11.58
2023-05-19T01:09:36.244Z,11.58
2023-05-19T01:12:39.907Z,11.46
2023-05-19T01:16:13.181Z,11.24
2023-05-19T01:19:51.086Z,11.15
2023-05-19T01:23:21.497Z,11.19
2023-05-19T01:26:53.924Z,11.31
2023-05-19T01:30:23.386Z,11.30
2023-05-19T01:33:27.357Z,11.15
2023-05-19T01:36:31.978Z,11.09
2023-05-19T01:39:35.030Z,11.10
2023-05-19T01:42:40.036Z,11.18
2023-05-19T01:45:42.775Z,11.34
2023-05-19T01:48:45.519Z,11.30
2023-05-19T01:51:50.036Z,11.30
2023-05-19T01:54:52.258Z,11.42
2023-05-19T01:57:57.457Z,11.45
2023-05-19T02:01:11.648Z,11.50
2023-05-19T02:04:18.542Z,11.60
2023-05-19T02:07:42.840Z,11.49
2023-05-19T02:10:53.543Z,11.46
2023-05-19T02:13:57.022Z,11.49
2023-05-19T02:16:59.800Z,11.61
2023-05-19T02:20:04.594Z,11.63
2023-05-19T02:23:07.149Z,11.62
2023-05-19T02:26:09.448Z,11.70
2023-05-19T02:29:12.152Z,11.66
2023-05-19T02:32:15.014Z,11.58
2023-05-19T02:35:17.670Z,11.71
2023-05-19T02:38:19.973Z,11.74
2023-05-19T02:41:22.261Z,11.66
2023-05-19T02:44:24.527Z,11.49
2023-05-19T02:47:26.759Z,11.40
2023-05-19T02:50:28.976Z,11.50
2023-05-19T02:53:32.363Z,11.48
2023-05-19T02:56:34.654Z,11.54
2023-05-19T02:59:37.351Z,11.46
2023-05-19T03:02:39.937Z,11.52
2023-05-19T03:05:42.695Z,11.51
2023-05-19T03:08:45.121Z,11.61
2023-05-19T03:11:47.339Z,11.68
2023-05-19T03:14:49.653Z,11.53
2023-05-19T03:17:52.057Z,11.43
2023-05-19T03:20:54.296Z,11.46
2023-05-19T03:23:56.638Z,11.45
2023-05-19T03:26:58.875Z,11.47
2023-05-19T03:30:01.218Z,11.60
2023-05-19T03:33:03.651Z,11.69
2023-05-19T03:36:06.483Z,11.65
2023-05-19T03:39:09.481Z,11.73
2023-05-19T03:42:11.713Z,11.84
2023-05-19T03:45:14.272Z,11.84
2023-05-19T03:48:17.950Z,11.91
2023-05-19T03:51:21.597Z,11.91
2023-05-19T03:54:23.856Z,12.27
2023-05-19T03:57:26.188Z,12.28
2023-05-19T04:00:28.470Z,12.17
2023-05-19T04:03:30.835Z,12.15
2023-05-19T04:06:33.972Z,12.14
2023-05-19T04:09:37.689Z,12.10
2023-05-19T04:12:40.054Z,11.84
2023-05-19T04:15:42.410Z,11.94
2023-05-19T04:18:46.413Z,11.91
2023-05-19T04:21:48.824Z,12.00
2023-05-19T04:24:52.346Z,11.90
2023-05-19T04:27:57.728Z,11.89
2023-05-19T04:31:00.337Z,11.94
2023-05-19T04:34:02.683Z,12.01
2023-05-19T04:37:07.126Z,12.16
2023-05-19T04:40:11.186Z,12.05
2023-05-19T04:43:13.479Z,12.13
2023-05-19T04:46:15.742Z,12.26
2023-05-19T04:49:19.237Z,12.52
2023-05-19T04:52:22.264Z,12.66
2023-05-19T04:55:24.490Z,12.78
2023-05-19T04:58:27.566Z,12.77
2023-05-19T05:01:31.380Z,12.88
2023-05-19T05:04:33.893Z,13.03
2023-05-19T05:07:36.540Z,13.53
2023-05-19T05:10:38.928Z,13.88
2023-05-19T05:13:41.439Z,14.71
2023-05-19T05:16:44.114Z,15.11
2023-05-19T05:19:47.071Z,15.42
2023-05-19T05:22:49.611Z,15.97
2023-05-19T05:25:52.040Z,16.12
2023-05-19T05:28:54.280Z,16.31
2023-05-19T05:31:56.510Z,16.04
2023-05-19T05:34:59.021Z,16.39
2023-05-19T05:38:01.829Z,15.77
2023-05-19T05:41:04.220Z,15.48
2023-05-19T05:44:06.583Z,15.24
2023-05-19T05:47:09.160Z,15.21
2023-05-19T05:50:13.270Z,15.37
2023-05-19T05:53:19.397Z,15.57
2023-05-19T05:56:22.174Z,15.27
2023-05-19T05:59:24.481Z,15.66
2023-05-19T06:02:28.280Z,15.85
2023-05-19T06:05:30.751Z,15.74
2023-05-19T06:08:33.103Z,15.58
2023-05-19T06:11:35.348Z,15.24
2023-05-19T06:14:37.672Z,16.17
2023-05-19T06:17:40.030Z,16.06
2023-05-19T06:20:42.313Z,16.39
2023-05-19T06:23:44.605Z,16.56
2023-05-19T06:26:46.799Z,16.72
2023-05-19T06:29:49.133Z,16.83
2023-05-19T06:32:51.551Z,16.49
2023-05-19T06:35:53.939Z,16.35
2023-05-19T06:38:56.365Z,16.84
2023-05-19T06:41:58.636Z,17.07
2023-05-19T06:45:00.857Z,17.15
2023-05-19T06:48:03.567Z,17.34
2023-05-19T06:51:05.918Z,17.57
2023-05-19T06:54:11.041Z,17.52
2023-05-19T06:57:13.301Z,17.30
2023-05-19T07:00:19.274Z,17.32
2023-05-19T07:03:22.855Z,17.35
2023-05-19T07:06:25.134Z,17.40
2023-05-19T07:09:27.364Z,17.83
2023-05-19T07:12:29.601Z,17.75
2023-05-19T07:15:31.870Z,18.54
2023-05-19T07:18:34.027Z,18.84
2023-05-19T07:21:36.307Z,18.26
2023-05-19T07:24:38.527Z,18.26
2023-05-19T07:27:40.909Z,17.47
2023-05-19T07:30:43.349Z,17.77
2023-05-19T07:33:45.583Z,17.73
2023-05-19T07:36:47.903Z,18.10
2023-05-19T07:39:50.209Z,17.86
2023-05-19T07:42:52.461Z,17.83
2023-05-19T07:45:56.379Z,17.65
2023-05-19T07:48:58.709Z,17.56
2023-05-19T07:52:01.287Z,18.01
2023-05-19T07:55:03.703Z,17.84
2023-05-19T07:58:05.994Z,18.00
2023-05-19T08:01:08.248Z,17.97
2023-05-19T08:04:12.813Z,18.59
2023-05-19T08:07:15.671Z,18.72
2023-05-19T08:10:18.114Z,18.28
2023-05-19T08:13:20.343Z,18.50
2023-05-19T08:16:22.942Z,18.80
2023-05-19T08:19:25.446Z,18.92
2023-05-19T08:22:28.176Z,18.57
2023-05-19T08:25:30.426Z,18.26
2023-05-19T08:28:32.829Z,17.73
2023-05-19T08:31:35.119Z,17.58
2023-05-19T08:34:37.525Z,17.85
2023-05-19T08:37:39.890Z,18.59
2023-05-19T08:40:43.098Z,18.81
2023-05-19T08:43:45.564Z,18.27
2023-05-19T08:46:48.255Z,18.03
2023-05-19T08:49:53.028Z,18.50
2023-05-19T08:53:05.770Z,18.78
2023-05-19T08:56:14.909Z,18.82
2023-05-19T08:59:17.506Z,19.53
2023-05-19T09:02:19.860Z,20.10
2023-05-19T09:05:22.476Z,19.62
2023-05-19T09:08:24.771Z,20.48
2023-05-19T09:11:27.552Z,20.65
2023-05-19T09:14:30.804Z,19.32
2023-05-19T09:17:34.054Z,18.50
2023-05-19T09:20:46.021Z,19.05
2023-05-19T09:23:49.681Z,19.26
2023-05-19T09:26:51.875Z,20.09
2023-05-19T09:29:54.151Z,20.55
2023-05-19T09:32:56.512Z,20.01
2023-05-19T09:35:58.785Z,19.52
2023-05-19T09:39:00.976Z,19.00
2023-05-19T09:42:04.793Z,18.91
2023-05-19T09:45:09.320Z,19.15
2023-05-19T09:48:11.650Z,19.88
2023-05-19T09:51:13.896Z,20.12
2023-05-19T09:54:18.709Z,19.45
2023-05-19T09:57:26.067Z,18.95
2023-05-19T10:00:29.570Z,19.20
2023-05-19T10:03:33.047Z,19.66
2023-05-19T10:06:35.895Z,19.46
2023-05-19T10:09:38.245Z,19.74
2023-05-19T10:12:41.583Z,19.62
2023-05-19T10:15:57.475Z,20.31
2023-05-19T10:19:02.111Z,20.94
2023-05-19T10:22:05.099Z,20.44
2023-05-19T10:25:08.383Z,19.94
2023-05-19T10:28:15.203Z,20.41
2023-05-19T10:31:19.606Z,20.78
2023-05-19T10:34:40.628Z,20.95
2023-05-19T10:37:59.455Z,20.78
2023-05-19T10:41:22.581Z,20.68
2023-05-19T10:44:53.264Z,19.69
2023-05-19T10:47:56.133Z,20.23
2023-05-19T10:50:58.567Z,20.01
2023-05-19T10:54:10.455Z,20.02
2023-05-19T10:57:17.505Z,19.43
2023-05-19T11:00:30.315Z,19.19
2023-05-19T11:03:44.615Z,19.34
2023-05-19T11:06:51.773Z,19.15
2023-05-19T11:09:54.251Z,18.98
2023-05-19T11:12:58.315Z,19.38
2023-05-19T11:16:08.218Z,19.66
2023-05-19T11:19:20.899Z,19.78
2023-05-19T11:22:27.352Z,19.71
2023-05-19T11:25:43.382Z,19.49
2023-05-19T11:28:47.684Z,19.85
2023-05-19T11:31:50.051Z,19.90
2023-05-19T11:34:53.226Z,20.00
2023-05-19T11:37:55.756Z,20.10
2023-05-19T11:40:58.063Z,20.37
2023-05-19T11:44:00.325Z,20.46
2023-05-19T11:47:02.594Z,20.63
2023-05-19T11:50:05.110Z,20.67
2023-05-19T11:53:07.858Z,20.50
2023-05-19T11:56:11.819Z,20.90
2023-05-19T11:59:14.149Z,20.73
2023-05-19T12:02:21.890Z,21.08
2023-05-19T12:05:25.388Z,20.78
2023-05-19T12:08:27.778Z,20.60
2023-05-19T12:11:31.778Z,20.74
2023-05-19T12:14:34.545Z,20.90
2023-05-19T12:17:36.813Z,21.49
2023-05-19T12:20:39.291Z,21.92
2023-05-19T12:23:42.423Z,21.38
2023-05-19T12:26:44.682Z,21.43
2023-05-19T12:29:53.602Z,20.75
2023-05-19T12:32:59.382Z,20.25
2023-05-19T12:36:01.733Z,20.38
2023-05-19T12:39:05.064Z,20.45
2023-05-19T12:42:12.513Z,20.90
2023-05-19T12:45:15.326Z,21.18
2023-05-19T12:48:18.128Z,21.43
2023-05-19T12:51:20.541Z,21.45
2023-05-19T12:54:23.103Z,21.99
2023-05-19T12:57:26.746Z,22.15
2023-05-19T13:00:31.282Z,22.17
2023-05-19T13:03:40.070Z,21.77
2023-05-19T13:06:43.812Z,21.81
2023-05-19T13:09:46.106Z,22.05
2023-05-19T13:12:48.326Z,22.14
2023-05-19T13:15:50.726Z,22.33
2023-05-19T13:18:53.577Z,21.63
2023-05-19T13:21:55.840Z,22.02
2023-05-19T13:25:02.291Z,22.46
2023-05-19T13:28:08.005Z,22.43
2023-05-19T13:31:10.382Z,21.93
2023-05-19T13:34:12.619Z,21.81
2023-05-19T13:37:14.831Z,21.75
2023-05-19T13:40:17.686Z,21.96
2023-05-19T13:43:19.940Z,21.92
2023-05-19T13:46:29.508Z,22.12
2023-05-19T13:49:39.396Z,21.80
2023-05-19T13:52:41.805Z,22.26
2023-05-19T13:55:44.023Z,22.15
2023-05-19T13:58:46.837Z,22.44
2023-05-19T14:01:49.056Z,22.07
2023-05-19T14:04:51.425Z,22.28
2023-05-19T14:07:54.489Z,22.48
2023-05-19T14:10:57.157Z,22.67
2023-05-19T14:13:59.472Z,22.45
2023-05-19T14:17:01.654Z,22.16
2023-05-19T14:20:04.566Z,22.30
2023-05-19T14:23:06.794Z,21.54
2023-05-19T14:26:09.041Z,21.26
2023-05-19T14:29:11.615Z,21.17
2023-05-19T14:32:13.943Z,21.65
2023-05-19T14:35:16.266Z,21.98
2023-05-19T14:38:18.619Z,22.30
2023-05-19T14:41:21.593Z,22.40
2023-05-19T14:44:23.771Z,22.40
2023-05-19T14:47:27.073Z,22.39
2023-05-19T14:50:29.685Z,22.16
2023-05-19T14:53:32.003Z,22.48
2023-05-19T14:56:34.241Z,22.06
2023-05-19T14:59:39.674Z,22.00
2023-05-19T15:02:42.037Z,22.11
2023-05-19T15:05:45.432Z,22.26
2023-05-19T15:08:47.657Z,22.28
2023-05-19T15:11:49.873Z,22.44
2023-05-19T15:14:52.167Z,22.43
2023-05-19T15:17:54.423Z,22.58
2023-05-19T15:20:56.761Z,22.52
2023-05-19T15:23:58.983Z,22.52
2023-05-19T15:27:01.803Z,22.49
2023-05-19T15:30:05.234Z,22.48
2023-05-19T15:33:07.506Z,22.44
2023-05-19T15:36:11.244Z,22.36
2023-05-19T15:39:13.673Z,22.20
2023-05-19T15:42:15.946Z,22.28
2023-05-19T15:45:18.165Z,22.36
2023-05-19T15:48:20.765Z,22.46
2023-05-19T15:51:23.313Z,22.54
2023-05-19T15:54:25.663Z,22.56
2023-05-19T15:57:27.866Z,22.60
2023-05-19T16:00:30.130Z,22.59
2023-05-19T16:03:32.598Z,22.50
2023-05-19T16:06:34.898Z,22.31
2023-05-19T16:09:37.123Z,22.14
2023-05-19T16:12:39.448Z,22.15
2023-05-19T16:15:41.909Z,22.05
2023-05-19T16:18:44.615Z,22.10
2023-05-19T16:21:46.928Z,22.06
2023-05-19T16:24:49.166Z,21.95
2023-05-19T16:27:52.400Z,21.93
2023-05-19T16:31:00.842Z,21.85
2023-05-19T16:34:03.117Z,21.96
2023-05-19T16:37:05.394Z,21.90
2023-05-19T16:40:08.358Z,21.72
2023-05-19T16:43:10.985Z,21.77
2023-05-19T16:46:13.300Z,21.70
2023-05-19T16:49:15.703Z,21.66
2023-05-19T16:52:17.952Z,21.52
2023-05-19T16:55:20.587Z,21.33
2023-05-19T16:58:22.869Z,21.15
2023-05-19T17:01:25.186Z,21.12
2023-05-19T17:04:29.392Z,21.04
2023-05-19T17:07:32.927Z,21.09
2023-05-19T17:10:36.052Z,20.99
2023-05-19T17:13:38.328Z,20.89
2023-05-19T17:16:40.709Z,20.73
2023-05-19T17:19:42.918Z,20.61
2023-05-19T17:22:45.143Z,20.55
2023-05-19T17:25:47.820Z,20.48
2023-05-19T17:28:50.065Z,20.36
2023-05-19T17:31:52.316Z,20.33
2023-05-19T17:34:54.640Z,20.29
2023-05-19T17:37:58.600Z,20.21
2023-05-19T17:41:02.560Z,20.12
2023-05-19T17:44:06.773Z,19.96
2023-05-19T17:47:09.139Z,19.80
2023-05-19T17:50:11.513Z,19.70
2023-05-19T17:53:15.150Z,19.42
2023-05-19T17:56:17.510Z,19.25
2023-05-19T17:59:19.898Z,19.06
2023-05-19T18:02:22.462Z,18.71
2023-05-19T18:05:25.228Z,18.62
2023-05-19T18:08:28.773Z,18.50
2023-05-19T18:11:30.972Z,18.42
2023-05-19T18:14:33.204Z,18.25
2023-05-19T18:17:35.525Z,18.13
2023-05-19T18:20:38.789Z,18.01
2023-05-19T18:23:41.545Z,18.11
2023-05-19T18:26:43.827Z,17.82
2023-05-19T18:29:46.124Z,17.48
2023-05-19T18:32:48.385Z,17.16
2023-05-19T18:35:50.721Z,17.16
2023-05-19T18:38:53.278Z,17.13
2023-05-19T18:41:55.512Z,16.90
2023-05-19T18:44:57.741Z,16.63
2023-05-19T18:47:59.980Z,16.41
2023-05-19T18:51:03.852Z,16.45
2023-05-19T18:54:07.707Z,16.56
2023-05-19T18:57:09.991Z,16.52
2023-05-19T19:00:13.653Z,16.26
2023-05-19T19:03:15.942Z,16.46
2023-05-19T19:06:20.904Z,16.33
2023-05-19T19:09:23.210Z,16.24
2023-05-19T19:12:25.458Z,16.11
2023-05-19T19:15:28.442Z,16.12
2023-05-19T19:18:31.155Z,16.07
2023-05-19T19:21:33.544Z,16.04
2023-05-19T19:24:35.891Z,15.73
2023-05-19T19:27:38.179Z,15.64
2023-05-19T19:30:40.485Z,15.53
2023-05-19T19:33:43.690Z,15.64
2023-05-19T19:36:47.976Z,15.70
2023-05-19T19:39:50.440Z,15.66
2023-05-19T19:42:53.139Z,15.51
2023-05-19T19:46:02.966Z,15.40
2023-05-19T19:49:05.325Z,15.37
2023-05-19T19:52:07.714Z,15.28
2023-05-19T19:55:10.374Z,15.40
2023-05-19T19:58:12.905Z,15.34
2023-05-19T20:01:16.101Z,15.25
2023-05-19T20:04:18.551Z,15.19
2023-05-19T20:07:23.244Z,15.11
2023-05-19T20:10:25.619Z,15.03
2023-05-19T20:13:28.578Z,15.08
2023-05-19T20:16:32.009Z,15.06
2023-05-19T20:19:34.443Z,15.05
2023-05-19T20:22:37.057Z,15.04
2023-05-19T20:25:57.859Z,15.02
2023-05-19T20:29:05.065Z,15.09
2023-05-19T20:32:07.356Z,15.04
2023-05-19T20:35:10.376Z,15.05
2023-05-19T20:38:12.692Z,15.02
2023-05-19T20:41:15.044Z,14.95
2023-05-19T20:44:20.721Z,15.03
2023-05-19T20:47:23.091Z,15.04
2023-05-19T20:50:25.628Z,15.18
2023-05-19T20:53:27.896Z,15.36
2023-05-19T20:56:30.109Z,15.46
2023-05-19T20:59:32.951Z,15.50
2023-05-19T21:02:35.354Z,15.55
2023-05-19T21:05:37.685Z,15.57
2023-05-19T21:08:39.938Z,15.54
2023-05-19T21:11:42.199Z,15.48
2023-05-19T21:14:44.416Z,15.56
2023-05-19T21:17:46.823Z,15.56
2023-05-19T21:20:49.132Z,15.46
2023-05-19T21:23:51.495Z,15.49
2023-05-19T21:26:53.776Z,15.58
2023-05-19T21:29:56.056Z,15.68
2023-05-19T21:32:58.656Z,15.44
2023-05-19T21:36:01.279Z,15.55
2023-05-19T21:39:04.711Z,15.55
2023-05-19T21:42:10.528Z,15.53
2023-05-19T21:45:12.852Z,15.13
2023-05-19T21:48:19.341Z,14.92
2023-05-19T21:51:21.626Z,14.91
2023-05-19T21:54:23.871Z,14.97
2023-05-19T21:57:26.158Z,14.89
2023-05-19T22:00:28.885Z,14.83
2023-05-19T22:03:31.236Z,14.75
2023-05-19T22:06:33.716Z,14.78
2023-05-19T22:09:35.989Z,14.78
2023-05-19T22:12:38.300Z,14.43
2023-05-19T22:15:41.401Z,14.22
2023-05-19T22:18:43.689Z,14.09
2023-05-19T22:21:46.005Z,14.10
2023-05-19T22:24:48.676Z,14.11
2023-05-19T22:27:50.927Z,14.65
2023-05-19T22:30:53.157Z,15.09
2023-05-19T22:33:56.054Z,15.30
2023-05-19T22:36:58.370Z,15.47
2023-05-19T22:40:00.691Z,15.53
2023-05-19T22:43:02.979Z,15.53
2023-05-19T22:46:05.464Z,15.38
2023-05-19T22:49:07.930Z,15.29
2023-05-19T22:52:11.079Z,15.45
2023-05-19T22:55:13.380Z,15.41
2023-05-19T22:58:15.636Z,15.41
2023-05-19T23:01:18.708Z,15.20
2023-05-19T23:04:21.067Z,15.32
2023-05-19T23:07:23.317Z,15.54
2023-05-19T23:10:25.556Z,15.59
2023-05-19T23:13:28.037Z,15.66
2023-05-19T23:16:30.284Z,15.63
2023-05-19T23:19:33.277Z,15.53
2023-05-19T23:22:35.502Z,15.39
2023-05-19T23:25:37.719Z,15.21
2023-05-19T23:28:42.024Z,15.23
2023-05-19T23:31:44.532Z,15.23
2023-05-19T23:34:48.020Z,15.25
2023-05-19T23:37:50.352Z,15.07
2023-05-19T23:40:52.526Z,15.18
2023-05-19T23:43:54.715Z,14.75
2023-05-19T23:46:56.972Z,14.50
2023-05-19T23:49:59.152Z,14.37
2023-05-19T23:53:01.438Z,14.35
2023-05-19T23:56:03.694Z,14.74
2023-05-19T23:59:06.043Z,14.47
